Time;durP1;ratioP1;P1;durP2;ratioP2;P2;SDS_P1;SDS_P2;PMS_P1;PMS_P2;Temp;Humidity;BMP_temperature;BMP_pressure;BME280_temperature;BME280_humidity;BME280_pressure;Samples;Min_cycle;Max_cycle;Signal;HPM_P1;HPM_P2
2023/09/24 00:02:14;;;;;;;8.50;5.40;;;21.20;66.20;;;;;;4997439;28;20027;-58
2023/09/24 00:04:42;;;;;;;8.02;4.55;;;21.20;66.30;;;;;;4997914;28;20031;-58
2023/09/24 00:07:08;;;;;;;8.02;4.75;;;21.20;66.30;;;;;;4997404;28;20030;-58
2023/09/24 00:09:33;;;;;;;7.72;4.78;;;21.10;66.30;;;;;;4997718;28;20034;-57
2023/09/24 00:11:59;;;;;;;8.80;5.03;;;21.20;66.30;;;;;;4997437;28;20038;-58
2023/09/24 00:14:26;;;;;;;6.82;4.47;;;21.10;66.20;;;;;;4997676;28;20026;-58
2023/09/24 00:16:52;;;;;;;8.35;4.80;;;21.10;66.10;;;;;;4997738;28;20076;-58
2023/09/24 00:19:18;;;;;;;6.63;4.60;;;21.10;66.10;;;;;;4997264;28;20080;-57
2023/09/24 00:21:43;;;;;;;7.80;4.60;;;21.10;66.00;;;;;;4997216;28;20034;-58
2023/09/24 00:24:10;;;;;;;9.55;5.00;;;21.10;66.00;;;;;;4997564;28;20033;-57
2023/09/24 00:26:35;;;;;;;7.05;5.20;;;21.10;66.20;;;;;;4997185;28;20032;-57
2023/09/24 00:29:02;;;;;;;13.13;5.68;;;21.00;66.70;;;;;;4997406;28;20109;-57
2023/09/24 00:31:27;;;;;;;9.73;4.85;;;21.00;66.00;;;;;;4997134;28;20057;-57
2023/09/24 00:33:53;;;;;;;6.45;4.60;;;21.00;66.00;;;;;;4997012;28;20031;-58
2023/09/24 00:36:19;;;;;;;6.18;4.60;;;21.00;66.00;;;;;;4996850;28;20076;-57
2023/09/24 00:38:45;;;;;;;9.80;5.15;;;21.00;66.00;;;;;;4996791;28;20492;-58
2023/09/24 00:41:11;;;;;;;6.50;4.30;;;21.00;65.90;;;;;;4996802;28;20114;-57
2023/09/24 00:43:36;;;;;;;7.38;4.82;;;21.00;65.70;;;;;;4996550;28;20030;-57
2023/09/24 00:46:07;;;;;;;7.80;4.72;;;21.00;65.70;;;;;;4996846;28;20479;-57
2023/09/24 00:48:33;;;;;;;;;;;21.00;65.60;;;;;;4997270;28;20023;-57
2023/09/24 00:51:04;;;;;;;9.95;5.00;;;20.90;65.70;;;;;;4996494;28;19973;-57
2023/09/24 00:53:31;;;;;;;8.77;4.95;;;20.90;65.90;;;;;;4996621;28;20095;-56
2023/09/24 00:55:58;;;;;;;8.82;5.03;;;20.90;66.00;;;;;;4996477;28;20030;-58
2023/09/24 00:58:25;;;;;;;8.38;5.07;;;20.90;66.10;;;;;;4996340;28;20037;-58
2023/09/24 01:00:56;;;;;;;7.40;4.97;;;20.90;66.10;;;;;;4996377;28;20038;-56
2023/09/24 01:03:24;;;;;;;8.40;5.18;;;20.80;66.10;;;;;;4996762;28;20053;-57
2023/09/24 01:05:51;;;;;;;9.52;5.15;;;20.80;66.20;;;;;;4995114;28;20371;-57
2023/09/24 01:08:22;;;;;;;8.43;5.18;;;20.90;66.40;;;;;;4996487;28;20372;-58
2023/09/24 01:10:48;;;;;;;7.93;4.80;;;20.80;66.40;;;;;;4996474;28;20026;-57
2023/09/24 01:13:23;;;;;;;7.13;5.13;;;20.80;66.50;;;;;;4995886;28;20260;-57
2023/09/24 01:15:52;;;;;;;7.90;4.65;;;20.80;66.60;;;;;;4996205;28;20412;-58
2023/09/24 01:18:19;;;;;;;8.60;5.80;;;20.80;66.70;;;;;;4995970;28;20107;-58
2023/09/24 01:20:45;;;;;;;8.63;5.60;;;20.80;66.70;;;;;;4996486;28;20030;-55
2023/09/24 01:23:14;;;;;;;6.40;5.03;;;20.80;66.70;;;;;;4996546;28;20034;-56
2023/09/24 01:25:40;;;;;;;8.30;5.20;;;20.80;67.00;;;;;;4995739;28;20037;-58
2023/09/24 01:28:07;;;;;;;6.88;5.00;;;20.80;67.00;;;;;;4996035;28;20018;-58
2023/09/24 01:30:34;;;;;;;8.75;5.15;;;20.80;67.10;;;;;;4995543;28;20483;-57
2023/09/24 01:33:00;;;;;;;7.93;5.97;;;20.70;67.00;;;;;;4995714;28;20367;-57
2023/09/24 01:35:28;;;;;;;9.35;5.70;;;20.70;66.80;;;;;;4995868;28;20030;-56
2023/09/24 01:37:59;;;;;;;10.00;5.10;;;20.70;66.70;;;;;;4995816;28;20030;-57
2023/09/24 01:40:32;;;;;;;7.88;5.97;;;20.70;66.70;;;;;;4995645;28;20060;-58
2023/09/24 01:42:58;;;;;;;7.53;5.13;;;20.70;67.20;;;;;;4995991;28;20026;-58
2023/09/24 01:45:28;;;;;;;9.38;5.47;;;20.70;67.30;;;;;;4995399;28;20473;-57
2023/09/24 01:47:55;;;;;;;11.75;5.63;;;20.70;67.40;;;;;;4996076;28;20087;-57
2023/09/24 01:50:27;;;;;;;8.15;5.85;;;20.70;67.50;;;;;;4996030;28;20037;-58
2023/09/24 01:52:54;;;;;;;9.52;5.53;;;20.70;67.60;;;;;;4995560;28;20034;-57
2023/09/24 01:55:21;;;;;;;6.18;5.22;;;20.70;67.70;;;;;;4995945;28;20038;-58
2023/09/24 01:57:48;;;;;;;8.05;5.35;;;20.70;67.90;;;;;;4995700;28;20037;-57
2023/09/24 02:00:26;;;;;;;7.35;5.50;;;20.70;68.00;;;;;;4996804;28;20058;-57
2023/09/24 02:02:58;;;;;;;6.78;5.13;;;20.70;68.40;;;;;;4995393;28;20029;-57
2023/09/24 02:05:24;;;;;;;6.70;5.57;;;20.70;68.80;;;;;;4977689;28;20164;-55
2023/09/24 02:07:50;;;;;;;10.18;5.38;;;20.70;68.90;;;;;;4995464;28;20061;-57
2023/09/24 02:10:20;;;;;;;6.95;5.65;;;20.60;68.80;;;;;;4995006;28;20420;-58
2023/09/24 02:12:46;;;;;;;8.40;5.90;;;20.60;68.90;;;;;;4995418;28;20026;-57
2023/09/24 02:15:15;;;;;;;7.03;5.63;;;20.70;69.10;;;;;;4995602;28;20476;-57
2023/09/24 02:17:41;;;;;;;10.15;5.80;;;20.60;69.00;;;;;;4996945;28;20030;-57
2023/09/24 02:20:32;;;;;;;10.82;6.00;;;20.60;68.90;;;;;;4999626;28;20034;-57
2023/09/24 02:22:59;;;;;;;8.55;5.40;;;20.70;69.00;;;;;;4998553;28;20042;-57
2023/09/24 02:25:29;;;;;;;9.88;6.25;;;20.70;69.00;;;;;;4999522;28;20027;-57
2023/09/24 02:27:55;;;;;;;10.63;5.77;;;20.70;69.10;;;;;;4999406;28;20031;-58
2023/09/24 02:30:23;;;;;;;10.82;5.55;;;20.70;69.40;;;;;;4999328;28;20482;-57
2023/09/24 02:32:49;;;;;;;9.35;6.13;;;20.70;69.10;;;;;;4999212;28;20045;-57
2023/09/24 02:35:16;;;;;;;12.15;5.78;;;20.70;68.90;;;;;;4999188;28;20030;-57
2023/09/24 02:37:47;;;;;;;8.15;6.18;;;20.70;68.90;;;;;;4999039;28;20113;-55
2023/09/24 02:40:15;;;;;;;12.02;6.20;;;20.70;69.00;;;;;;4998649;28;20053;-56
2023/09/24 02:42:43;;;;;;;8.93;5.72;;;20.70;69.50;;;;;;4999258;28;20090;-57
2023/09/24 02:45:10;;;;;;;10.82;5.97;;;20.70;70.30;;;;;;4998986;28;20050;-57
2023/09/24 02:47:36;;;;;;;10.60;6.03;;;20.70;71.00;;;;;;4998442;28;20478;-57
2023/09/24 02:50:13;;;;;;;15.02;6.65;;;20.60;71.30;;;;;;4999306;28;20026;-58
2023/09/24 02:52:43;;;;;;;8.43;5.85;;;20.60;71.50;;;;;;4999352;28;20110;-57
2023/09/24 02:55:13;;;;;;;8.57;6.30;;;20.70;72.00;;;;;;4998272;28;20038;-57
2023/09/24 02:57:40;;;;;;;11.45;6.95;;;20.60;72.20;;;;;;4998743;28;20038;-57
2023/09/24 03:00:15;;;;;;;7.88;5.57;;;20.60;72.60;;;;;;4997229;28;20061;-58
2023/09/24 03:02:41;;;;;;;8.88;5.88;;;20.60;72.90;;;;;;4997837;28;20027;-57
2023/09/24 03:05:20;;;;;;;11.80;6.15;;;20.60;73.20;;;;;;4997629;28;20077;-57
2023/09/24 03:07:47;;;;;;;11.10;6.20;;;20.60;73.60;;;;;;4997197;28;20098;-56
2023/09/24 03:10:13;;;;;;;8.88;6.35;;;20.60;74.10;;;;;;4997400;28;20022;-57
2023/09/24 03:12:45;;;;;;;8.43;6.03;;;20.60;74.40;;;;;;4997097;28;20109;-57
2023/09/24 03:15:11;;;;;;;8.85;6.57;;;20.60;74.90;;;;;;4992127;28;20038;-57
2023/09/24 03:17:41;;;;;;;9.93;6.05;;;20.60;75.20;;;;;;4993239;28;20049;-57
2023/09/24 03:20:20;;;;;;;8.07;6.00;;;20.60;75.50;;;;;;4993264;28;20030;-57
2023/09/24 03:22:54;;;;;;;14.10;6.90;;;20.60;75.60;;;;;;4994495;28;20030;-57
2023/09/24 03:25:25;;;;;;;8.90;6.57;;;20.60;76.00;;;;;;4993853;28;20118;-58
2023/09/24 03:27:53;;;;;;;8.85;6.28;;;20.60;76.40;;;;;;4992889;28;20033;-57
2023/09/24 03:30:19;;;;;;;12.45;6.90;;;20.60;76.50;;;;;;4992783;28;20022;-57
2023/09/24 03:32:49;;;;;;;6.95;5.90;;;20.60;76.70;;;;;;4993832;28;20394;-56
2023/09/24 03:35:18;;;;;;;8.80;6.47;;;20.60;76.90;;;;;;4994577;28;20542;-56
2023/09/24 03:37:45;;;;;;;8.95;6.50;;;20.60;77.00;;;;;;4994130;28;20380;-56
2023/09/24 03:40:15;;;;;;;8.27;5.95;;;20.60;77.10;;;;;;4994104;28;20394;-57
2023/09/24 03:42:41;;;;;;;8.68;6.22;;;20.70;77.20;;;;;;4993924;28;20022;-57
2023/09/24 03:45:15;;;;;;;8.85;6.40;;;20.70;77.20;;;;;;4994736;28;20398;-58
2023/09/24 03:47:41;;;;;;;11.20;6.50;;;20.70;77.10;;;;;;4996440;28;20078;-57
2023/09/24 03:50:11;;;;;;;9.57;6.07;;;20.70;77.10;;;;;;4996299;28;20554;-58
2023/09/24 03:52:37;;;;;;;9.80;6.30;;;20.70;76.90;;;;;;4996168;28;20022;-57
2023/09/24 03:55:04;;;;;;;10.35;5.82;;;20.70;76.70;;;;;;4996097;28;20037;-57
2023/09/24 03:57:30;;;;;;;9.13;6.47;;;20.70;76.40;;;;;;4996459;28;20038;-57
2023/09/24 03:59:57;;;;;;;11.07;6.97;;;20.70;76.20;;;;;;4950655;28;1334285;-57
2023/09/24 04:02:23;;;;;;;8.40;5.60;;;20.70;75.90;;;;;;4997747;28;20475;-58
2023/09/24 04:04:50;;;;;;;10.75;6.90;;;20.70;75.80;;;;;;4997513;28;20110;-57
2023/09/24 04:07:16;;;;;;;8.30;6.88;;;20.70;75.80;;;;;;4997495;28;20050;-57
2023/09/24 04:09:43;;;;;;;11.35;6.82;;;20.70;75.90;;;;;;4996755;28;20053;-57
2023/09/24 04:12:15;;;;;;;11.68;6.90;;;20.60;75.90;;;;;;4997017;28;20022;-57
2023/09/24 04:14:40;;;;;;;9.38;6.10;;;20.70;76.10;;;;;;4997094;28;20538;-57
2023/09/24 04:17:06;;;;;;;9.85;7.22;;;20.70;76.20;;;;;;4997039;28;20129;-57
2023/09/24 04:19:33;;;;;;;8.50;6.80;;;20.70;76.30;;;;;;4996711;28;20101;-57
2023/09/24 04:21:59;;;;;;;9.65;6.80;;;20.70;76.60;;;;;;4996226;28;20060;-58
2023/09/24 04:24:25;;;;;;;8.85;7.03;;;20.70;76.70;;;;;;4997076;28;20027;-58
2023/09/24 04:26:52;;;;;;;12.07;6.63;;;20.70;76.80;;;;;;4996772;28;20026;-58
2023/09/24 04:29:18;;;;;;;11.77;7.00;;;20.70;76.90;;;;;;4997000;28;20054;-54
2023/09/24 04:31:44;;;;;;;12.52;7.18;;;20.70;77.00;;;;;;4996932;28;20026;-58
2023/09/24 04:34:12;;;;;;;12.05;7.20;;;20.70;77.00;;;;;;4996482;28;20085;-58
2023/09/24 04:36:38;;;;;;;11.65;7.00;;;20.70;77.00;;;;;;4996466;28;20030;-58
2023/09/24 04:39:06;;;;;;;10.07;6.75;;;20.80;77.30;;;;;;4996582;28;20030;-57
2023/09/24 04:41:32;;;;;;;11.15;6.85;;;20.80;77.30;;;;;;4996402;28;20086;-57
2023/09/24 04:43:58;;;;;;;10.20;6.13;;;20.80;77.30;;;;;;4996598;28;20065;-58
2023/09/24 04:46:25;;;;;;;10.02;6.80;;;20.80;77.40;;;;;;4996368;28;20023;-58
2023/09/24 04:48:51;;;;;;;8.52;6.35;;;20.80;77.50;;;;;;4996566;28;20026;-57
2023/09/24 04:51:16;;;;;;;9.82;6.57;;;20.80;77.50;;;;;;4996110;28;20088;-58
2023/09/24 04:53:42;;;;;;;9.10;6.70;;;20.80;77.50;;;;;;4995760;28;20084;-58
2023/09/24 04:56:08;;;;;;;9.65;6.60;;;20.90;77.60;;;;;;4995642;28;20026;-59
2023/09/24 04:58:35;;;;;;;10.43;6.75;;;20.90;77.70;;;;;;4996170;28;20026;-59
2023/09/24 05:01:07;;;;;;;11.20;7.57;;;20.90;77.90;;;;;;4996237;28;20367;-58
2023/09/24 05:03:36;;;;;;;9.05;6.55;;;20.90;78.20;;;;;;4995955;28;20030;-59
2023/09/24 05:06:03;;;;;;;11.98;7.90;;;20.90;79.10;;;;;;4996352;28;20062;-58
2023/09/24 05:08:29;;;;;;;10.52;7.50;;;21.00;78.80;;;;;;4995952;28;20030;-59
2023/09/24 05:10:54;;;;;;;11.45;7.85;;;21.00;79.00;;;;;;4995787;28;20391;-57
2023/09/24 05:13:20;;;;;;;11.10;7.70;;;21.00;79.10;;;;;;4995673;28;20038;-59
2023/09/24 05:15:54;;;;;;;12.85;8.48;;;21.00;79.40;;;;;;4996011;28;20073;-57
2023/09/24 05:18:23;;;;;;;11.70;8.45;;;21.10;79.60;;;;;;4995775;28;20030;-58
2023/09/24 05:20:49;;;;;;;13.10;9.15;;;21.10;79.80;;;;;;4995066;28;20035;-58
2023/09/24 05:23:15;;;;;;;12.00;8.63;;;21.10;80.00;;;;;;4996032;28;20041;-57
2023/09/24 05:25:41;;;;;;;11.35;8.82;;;21.10;80.20;;;;;;4995546;28;20027;-57
2023/09/24 05:28:07;;;;;;;16.95;10.02;;;21.10;80.20;;;;;;4996042;28;20037;-58
2023/09/24 05:30:33;;;;;;;16.02;9.88;;;21.20;80.30;;;;;;4994968;28;20386;-57
2023/09/24 05:32:58;;;;;;;14.05;10.23;;;21.10;80.70;;;;;;4996187;28;20026;-58
2023/09/24 05:35:24;;;;;;;13.90;9.45;;;21.10;80.90;;;;;;4995329;28;20045;-56
2023/09/24 05:37:50;;;;;;;11.60;8.73;;;21.20;81.10;;;;;;4995719;28;20026;-56
2023/09/24 05:40:16;;;;;;;12.63;9.57;;;21.20;81.30;;;;;;4995156;28;20106;-57
2023/09/24 05:42:42;;;;;;;12.38;9.25;;;21.20;81.70;;;;;;4995337;28;20097;-57
2023/09/24 05:45:08;;;;;;;12.70;9.18;;;21.20;82.00;;;;;;4993933;28;20379;-58
2023/09/24 05:47:34;;;;;;;13.48;10.60;;;21.20;82.40;;;;;;4994588;28;20076;-57
2023/09/24 05:50:03;;;;;;;13.40;10.77;;;21.30;82.90;;;;;;4995343;28;20093;-57
2023/09/24 05:52:29;;;;;;;14.38;10.65;;;21.30;83.20;;;;;;4994727;28;20487;-57
2023/09/24 05:54:55;;;;;;;12.90;11.45;;;21.40;83.10;;;;;;4995034;28;20054;-57
2023/09/24 05:57:21;;;;;;;14.02;11.23;;;21.40;83.30;;;;;;4995276;28;20077;-58
2023/09/24 05:59:47;;;;;;;13.35;10.68;;;21.60;83.20;;;;;;4995311;28;20058;-58
2023/09/24 06:02:12;;;;;;;13.02;9.68;;;21.90;82.90;;;;;;4995781;28;20026;-58
2023/09/24 06:04:38;;;;;;;13.07;10.02;;;22.40;81.20;;;;;;4995725;28;20073;-58
2023/09/24 06:07:05;;;;;;;16.42;10.13;;;22.90;78.10;;;;;;4995686;28;20105;-58
2023/09/24 06:09:31;;;;;;;14.18;9.98;;;23.50;75.80;;;;;;4995760;28;20034;-58
2023/09/24 06:11:57;;;;;;;16.10;10.50;;;23.80;73.80;;;;;;4995521;28;20386;-58
2023/09/24 06:14:22;;;;;;;13.63;9.77;;;24.00;72.70;;;;;;4996027;28;20037;-59
2023/09/24 06:16:48;;;;;;;13.20;9.50;;;23.90;72.50;;;;;;4994496;28;20042;-58
2023/09/24 06:19:14;;;;;;;13.00;9.63;;;23.80;72.90;;;;;;4993339;28;20058;-58
2023/09/24 06:21:39;;;;;;;14.23;10.38;;;23.50;73.30;;;;;;4993871;28;20109;-58
2023/09/24 06:24:06;;;;;;;11.80;9.38;;;23.30;73.50;;;;;;4994404;28;20026;-58
2023/09/24 06:26:32;;;;;;;12.70;9.90;;;23.10;73.90;;;;;;4995647;28;20031;-58
2023/09/24 06:28:58;;;;;;;14.23;9.82;;;22.90;74.10;;;;;;4995387;28;20505;-58
2023/09/24 06:31:23;;;;;;;12.40;9.10;;;22.70;74.20;;;;;;4993910;28;20106;-58
2023/09/24 06:33:49;;;;;;;14.55;9.05;;;22.50;74.50;;;;;;4994779;28;20050;-57
2023/09/24 06:36:16;;;;;;;11.98;8.77;;;22.40;74.70;;;;;;4994769;28;20446;-57
2023/09/24 06:38:43;;;;;;;12.30;8.45;;;22.30;74.90;;;;;;4993580;28;20054;-57
2023/09/24 06:41:09;;;;;;;10.75;8.57;;;22.20;75.30;;;;;;4994315;28;20109;-58
2023/09/24 06:43:35;;;;;;;11.25;8.50;;;22.10;75.50;;;;;;4995160;28;20053;-58
2023/09/24 06:46:08;;;;;;;11.25;8.48;;;22.00;75.80;;;;;;4994403;28;20080;-58
2023/09/24 06:48:33;;;;;;;12.60;9.15;;;22.00;75.70;;;;;;4995221;28;20037;-58
2023/09/24 06:51:11;;;;;;;10.02;8.30;;;21.90;75.80;;;;;;4995508;28;20034;-57
2023/09/24 06:53:38;;;;;;;14.68;9.30;;;21.90;75.30;;;;;;4994866;28;20031;-58
2023/09/24 06:56:05;;;;;;;11.55;8.27;;;21.90;75.60;;;;;;4995490;28;20097;-58
2023/09/24 06:58:33;;;;;;;12.52;8.60;;;21.90;75.30;;;;;;4994692;28;20032;-58
2023/09/24 07:01:01;;;;;;;9.77;8.57;;;21.90;74.70;;;;;;4994789;28;20039;-58
2023/09/24 07:03:27;;;;;;;11.48;8.32;;;21.80;74.50;;;;;;4995872;28;20030;-58
2023/09/24 07:05:53;;;;;;;12.55;8.43;;;21.80;74.50;;;;;;4998573;28;20038;-58
2023/09/24 07:08:20;;;;;;;10.25;8.05;;;21.80;74.60;;;;;;4998180;28;20583;-58
2023/09/24 07:10:46;;;;;;;13.70;9.43;;;21.80;74.70;;;;;;4997049;28;20034;-58
2023/09/24 07:13:12;;;;;;;12.65;8.80;;;21.80;74.70;;;;;;4998340;28;20030;-58
2023/09/24 07:15:38;;;;;;;11.27;8.02;;;21.80;74.50;;;;;;4998189;28;20533;-58
2023/09/24 07:18:03;;;;;;;9.73;8.00;;;21.80;74.10;;;;;;4998787;28;20022;-58
2023/09/24 07:20:29;;;;;;;11.43;8.40;;;21.90;74.10;;;;;;4998684;28;20030;-59
2023/09/24 07:22:55;;;;;;;9.23;7.40;;;21.80;74.00;;;;;;4998121;28;20030;-58
2023/09/24 07:25:20;;;;;;;12.30;8.18;;;21.80;73.30;;;;;;4997908;28;20426;-58
2023/09/24 07:27:47;;;;;;;10.98;7.53;;;21.80;73.10;;;;;;4998516;28;20038;-58
2023/09/24 07:30:13;;;;;;;10.18;8.43;;;21.80;73.30;;;;;;4998332;28;20030;-58
2023/09/24 07:32:39;;;;;;;11.32;8.23;;;21.90;73.20;;;;;;4998838;28;20030;-58
2023/09/24 07:35:07;;;;;;;9.75;7.75;;;21.80;73.00;;;;;;4997904;28;20403;-58
2023/09/24 07:37:33;;;;;;;10.90;8.13;;;21.80;72.80;;;;;;4998367;28;20035;-57
2023/09/24 07:40:00;;;;;;;9.18;7.90;;;21.80;72.70;;;;;;4998033;28;20471;-58
2023/09/24 07:42:26;;;;;;;10.20;8.07;;;21.80;73.10;;;;;;4997955;28;20078;-57
2023/09/24 07:44:51;;;;;;;12.50;8.02;;;21.80;73.30;;;;;;4997840;28;20031;-58
2023/09/24 07:47:17;;;;;;;9.05;7.75;;;21.90;73.30;;;;;;4997496;28;20027;-58
2023/09/24 07:49:43;;;;;;;10.73;7.95;;;21.90;72.80;;;;;;4997460;28;20086;-58
2023/09/24 07:52:09;;;;;;;9.88;7.53;;;21.90;72.60;;;;;;4997438;28;20105;-58
2023/09/24 07:54:35;;;;;;;9.70;7.63;;;21.90;72.50;;;;;;4997560;28;20499;-58
2023/09/24 07:57:00;;;;;;;10.30;7.45;;;21.90;72.00;;;;;;4997718;28;20076;-58
2023/09/24 07:59:26;;;;;;;10.75;7.43;;;21.90;71.80;;;;;;5005872;28;20095;-58
2023/09/24 08:01:51;;;;;;;9.60;8.48;;;21.90;71.40;;;;;;5016694;28;20033;-57
2023/09/24 08:04:17;;;;;;;13.65;7.88;;;21.90;71.50;;;;;;5017785;28;20520;-57
2023/09/24 08:06:43;;;;;;;11.15;7.90;;;21.90;71.90;;;;;;5016961;28;20037;-58
2023/09/24 08:09:08;;;;;;;12.85;8.55;;;22.00;71.70;;;;;;5017046;28;20026;-58
2023/09/24 08:11:34;;;;;;;9.93;7.78;;;21.90;71.60;;;;;;5017245;28;20026;-58
2023/09/24 08:14:00;;;;;;;12.80;7.43;;;22.00;71.60;;;;;;5017260;28;20077;-58
2023/09/24 08:16:25;;;;;;;11.60;8.75;;;22.00;71.80;;;;;;5016575;28;20037;-58
2023/09/24 08:18:51;;;;;;;13.00;7.93;;;22.00;71.60;;;;;;5016688;28;20042;-58
2023/09/24 08:21:18;;;;;;;10.95;8.05;;;22.00;71.30;;;;;;5016703;28;20125;-56
2023/09/24 08:23:44;;;;;;;11.63;8.30;;;22.00;70.70;;;;;;5017438;28;20057;-58
2023/09/24 08:26:10;;;;;;;9.77;7.57;;;22.00;70.30;;;;;;5017309;28;20067;-58
2023/09/24 08:28:35;;;;;;;12.10;8.05;;;22.00;69.40;;;;;;5016390;28;20022;-58
2023/09/24 08:31:08;;;;;;;10.00;8.07;;;22.00;68.90;;;;;;5015080;28;20037;-58
2023/09/24 08:33:34;;;;;;;13.02;8.27;;;22.00;69.20;;;;;;5016497;28;20081;-57
2023/09/24 08:35:59;;;;;;;9.65;8.15;;;22.10;68.30;;;;;;5016747;28;20478;-57
2023/09/24 08:38:25;;;;;;;9.88;7.55;;;22.10;67.90;;;;;;5017055;28;20451;-58
2023/09/24 08:40:51;;;;;;;11.77;8.27;;;22.10;67.50;;;;;;5015940;28;20088;-57
2023/09/24 08:43:20;;;;;;;9.50;7.30;;;22.10;67.20;;;;;;5016649;28;20041;-58
2023/09/24 08:45:47;;;;;;;12.60;7.70;;;22.10;67.10;;;;;;5015585;28;20026;-58
2023/09/24 08:48:14;;;;;;;11.13;7.65;;;22.20;66.70;;;;;;5014127;28;20047;-57
2023/09/24 08:50:41;;;;;;;10.25;7.50;;;22.20;66.20;;;;;;5014135;28;20025;-58
2023/09/24 08:53:12;;;;;;;9.50;7.78;;;22.30;65.40;;;;;;5014740;28;20117;-58
2023/09/24 08:55:43;;;;;;;;;;;22.30;65.30;;;;;;5015191;28;20030;-56
2023/09/24 08:58:09;;;;;;;10.73;8.07;;;22.30;65.80;;;;;;5015486;28;20273;-58
2023/09/24 09:00:34;;;;;;;11.10;7.90;;;22.30;64.90;;;;;;5014635;28;20042;-57
2023/09/24 09:03:05;;;;;;;11.18;8.48;;;22.40;64.60;;;;;;5016413;28;20770;-58
2023/09/24 09:05:36;;;;;;;11.52;7.60;;;22.40;64.20;;;;;;5016326;28;20033;-57
2023/09/24 09:08:03;;;;;;;15.18;7.53;;;22.40;64.60;;;;;;5016608;28;20034;-57
2023/09/24 09:10:30;;;;;;;9.90;7.38;;;22.50;64.60;;;;;;5015904;28;20026;-58
2023/09/24 09:13:08;;;;;;;10.27;7.45;;;22.60;64.10;;;;;;5016550;28;20099;-58
2023/09/24 09:15:35;;;;;;;10.60;7.55;;;22.60;63.70;;;;;;5016241;28;20021;-58
2023/09/24 09:18:01;;;;;;;10.45;7.30;;;22.60;62.80;;;;;;5015817;28;20030;-58
2023/09/24 09:20:43;;;;;;;7.47;6.38;;;22.70;62.50;;;;;;5015819;28;20445;-58
2023/09/24 09:23:12;;;;;;;8.93;7.78;;;22.70;61.80;;;;;;4998268;28;20022;-58
2023/09/24 09:25:54;;;;;;;10.60;7.35;;;22.70;61.70;;;;;;5015556;28;20033;-58
2023/09/24 09:28:20;;;;;;;10.13;7.38;;;22.80;61.80;;;;;;5015067;28;20021;-58
2023/09/24 09:31:07;;;;;;;12.45;7.03;;;22.80;61.70;;;;;;5015291;28;20072;-58
2023/09/24 09:33:42;;;;;;;12.15;7.13;;;22.80;61.50;;;;;;5015486;28;20026;-58
2023/09/24 09:36:25;;;;;;;11.00;7.10;;;22.90;61.30;;;;;;5015501;28;20077;-58
2023/09/24 09:38:51;;;;;;;9.95;7.15;;;22.90;61.30;;;;;;5014884;28;20048;-57
2023/09/24 09:41:18;;;;;;;9.63;7.35;;;22.90;60.80;;;;;;5014651;28;20558;-57
2023/09/24 09:43:47;;;;;;;8.68;6.47;;;22.90;60.70;;;;;;5015617;28;20483;-57
2023/09/24 09:46:17;;;;;;;12.32;7.25;;;22.90;60.30;;;;;;5015416;28;20430;-57
2023/09/24 09:48:54;;;;;;;11.93;7.00;;;22.90;60.10;;;;;;5015486;28;20390;-58
2023/09/24 09:51:21;;;;;;;11.02;6.40;;;22.90;60.00;;;;;;5014800;28;20600;-58
2023/09/24 09:53:47;;;;;;;9.88;6.78;;;22.90;59.80;;;;;;5015214;28;20045;-58
2023/09/24 09:56:14;;;;;;;11.48;7.50;;;22.90;59.70;;;;;;5014695;28;20029;-58
2023/09/24 09:58:41;;;;;;;11.23;7.10;;;22.90;59.60;;;;;;5015114;28;20022;-58
2023/09/24 10:01:07;;;;;;;10.60;7.28;;;22.90;59.60;;;;;;5015227;28;20038;-58
2023/09/24 10:03:36;;;;;;;8.73;7.57;;;22.90;59.40;;;;;;5015217;28;20488;-57
2023/09/24 10:06:04;;;;;;;12.25;7.35;;;22.90;59.50;;;;;;5015335;28;20129;-58
2023/09/24 10:08:44;;;;;;;13.90;7.78;;;22.90;59.50;;;;;;5014523;28;20034;-57
2023/09/24 10:11:30;;;;;;;10.02;6.70;;;22.90;60.30;;;;;;5014528;28;20044;-57
2023/09/24 10:13:56;;;;;;;11.85;6.88;;;22.90;60.20;;;;;;5013377;28;20061;-58
2023/09/24 10:16:25;;;;;;;12.45;7.30;;;22.90;60.50;;;;;;5014723;28;20026;-57
2023/09/24 10:18:58;;;;;;;10.95;7.15;;;22.90;60.80;;;;;;5014127;28;20041;-58
2023/09/24 10:21:50;;;;;;;12.38;6.97;;;22.90;60.80;;;;;;5014457;28;20485;-58
2023/09/24 10:24:28;;;;;;;10.80;7.53;;;22.90;60.80;;;;;;5010381;28;20038;-58
2023/09/24 10:27:03;;;;;;;7.63;6.35;;;22.90;61.20;;;;;;5014671;28;20488;-56
2023/09/24 10:29:51;;;;;;;10.43;7.22;;;22.90;61.80;;;;;;5014758;28;20524;-57
2023/09/24 10:32:18;;;;;;;9.98;7.65;;;22.90;62.30;;;;;;5014137;28;20106;-57
2023/09/24 10:34:55;;;;;;;9.98;7.20;;;22.90;62.70;;;;;;5012846;28;20056;-58
2023/09/24 10:37:33;;;;;;;9.98;6.65;;;23.00;62.90;;;;;;5012399;28;20026;-58
2023/09/24 10:40:05;;;;;;;9.23;6.25;;;23.00;62.70;;;;;;5016768;28;20026;-57
2023/09/24 10:42:39;;;;;;;7.07;6.07;;;23.00;62.50;;;;;;5017684;28;20513;-57
2023/09/24 10:45:07;;;;;;;11.95;7.20;;;23.00;62.30;;;;;;5017741;28;20552;-57
2023/09/24 10:47:36;;;;;;;9.90;6.38;;;23.00;62.10;;;;;;5018279;28;20048;-58
2023/09/24 10:50:15;;;;;;;8.73;6.40;;;23.10;62.00;;;;;;5017514;28;20045;-57
2023/09/24 10:53:00;;;;;;;7.13;5.72;;;23.10;61.60;;;;;;5018212;28;20029;-58
2023/09/24 10:55:29;;;;;;;10.85;6.60;;;23.20;61.30;;;;;;5018456;28;20040;-58
2023/09/24 10:58:00;;;;;;;8.18;6.20;;;23.10;61.50;;;;;;5017679;28;20026;-57
2023/09/24 11:00:28;;;;;;;8.27;6.47;;;23.10;61.60;;;;;;5016947;28;20554;-57
2023/09/24 11:02:54;;;;;;;7.63;5.80;;;23.20;61.90;;;;;;5017465;28;20035;-58
2023/09/24 11:05:20;;;;;;;8.48;6.35;;;23.20;61.90;;;;;;5018231;28;20029;-58
2023/09/24 11:07:46;;;;;;;10.18;6.40;;;23.20;62.20;;;;;;5017769;28;20120;-58
2023/09/24 11:10:18;;;;;;;7.72;5.85;;;23.30;62.30;;;;;;5017575;28;20474;-58
2023/09/24 11:12:52;;;;;;;9.23;6.30;;;23.30;62.10;;;;;;5017077;28;20478;-56
2023/09/24 11:15:19;;;;;;;6.43;5.70;;;23.30;62.00;;;;;;5018076;28;20545;-58
2023/09/24 11:17:46;;;;;;;8.57;5.78;;;23.30;62.30;;;;;;5017637;28;20037;-58
2023/09/24 11:20:12;;;;;;;11.77;8.18;;;23.30;62.10;;;;;;5017843;28;20026;-57
2023/09/24 11:22:39;;;;;;;7.95;6.00;;;23.30;62.50;;;;;;5017960;28;20025;-58
2023/09/24 11:25:09;;;;;;;10.55;5.90;;;23.30;62.10;;;;;;5017827;28;20113;-57
2023/09/24 11:27:44;;;;;;;8.50;5.75;;;23.30;61.50;;;;;;4997087;28;20042;-57
2023/09/24 11:30:10;;;;;;;10.85;5.47;;;23.40;61.50;;;;;;4977342;28;20045;-57
2023/09/24 11:32:35;;;;;;;14.32;7.68;;;23.40;61.60;;;;;;4977498;28;20031;-58
2023/09/24 11:35:12;;;;;;;8.50;5.50;;;23.40;61.30;;;;;;4977876;28;20471;-58
2023/09/24 11:38:04;;;;;;;11.35;5.70;;;23.40;61.10;;;;;;4977048;28;20475;-57
2023/09/24 11:40:34;;;;;;;7.40;5.30;;;23.50;60.90;;;;;;4975590;28;20038;-57
2023/09/24 11:43:05;;;;;;;10.15;5.72;;;23.40;60.40;;;;;;4977486;28;20032;-58
2023/09/24 11:45:41;;;;;;;;;;;23.50;60.60;;;;;;4978743;28;20034;-58
2023/09/24 11:48:10;;;;;;;6.22;4.47;;;23.40;60.80;;;;;;4977806;28;19906;-58
2023/09/24 11:50:38;;;;;;;6.25;4.50;;;23.40;60.30;;;;;;4977094;28;20045;-57
2023/09/24 11:53:04;;;;;;;10.05;5.45;;;23.50;59.40;;;;;;4978602;28;20042;-58
2023/09/24 11:55:30;;;;;;;6.03;4.68;;;23.50;59.20;;;;;;4977181;28;20023;-56
2023/09/24 11:57:55;;;;;;;7.93;5.07;;;23.60;59.10;;;;;;4978219;28;20456;-57
2023/09/24 12:00:22;;;;;;;7.05;4.22;;;23.60;59.00;;;;;;5009947;28;20053;-58
2023/09/24 12:02:48;;;;;;;7.32;5.60;;;23.60;58.10;;;;;;5017406;28;20028;-58
2023/09/24 12:05:15;;;;;;;12.27;4.93;;;23.70;58.20;;;;;;5017579;28;20026;-59
2023/09/24 12:07:41;;;;;;;7.75;4.68;;;23.70;57.90;;;;;;5016564;28;20037;-59
2023/09/24 12:10:07;;;;;;;5.75;4.80;;;23.80;57.60;;;;;;5017037;28;20033;-58
2023/09/24 12:12:33;;;;;;;6.85;5.10;;;23.80;57.40;;;;;;5016932;28;20367;-59
2023/09/24 12:14:59;;;;;;;9.70;4.82;;;23.90;57.20;;;;;;5016797;28;20044;-58
2023/09/24 12:17:24;;;;;;;7.63;4.75;;;23.90;57.50;;;;;;5016396;28;20096;-59
2023/09/24 12:19:52;;;;;;;6.40;4.63;;;23.90;57.60;;;;;;5016265;28;20026;-59
2023/09/24 12:22:17;;;;;;;6.88;5.38;;;23.90;57.60;;;;;;5017031;28;20042;-58
2023/09/24 12:24:43;;;;;;;7.57;5.50;;;23.90;57.70;;;;;;5017263;28;20390;-59
2023/09/24 12:27:09;;;;;;;7.68;4.93;;;24.00;57.80;;;;;;5017265;28;20022;-59
2023/09/24 12:29:35;;;;;;;8.02;4.53;;;24.00;57.60;;;;;;5016275;28;20061;-58
2023/09/24 12:32:00;;;;;;;8.95;5.03;;;24.00;57.50;;;;;;5016598;28;20104;-59
2023/09/24 12:34:26;;;;;;;6.43;5.00;;;24.00;57.60;;;;;;5016353;28;20552;-59
2023/09/24 12:36:51;;;;;;;8.18;4.50;;;24.00;57.50;;;;;;5014889;28;20116;-58
2023/09/24 12:39:20;;;;;;;8.32;5.78;;;24.00;57.40;;;;;;5015811;28;20026;-60
2023/09/24 12:41:46;;;;;;;7.10;4.70;;;24.00;57.80;;;;;;5015607;28;20018;-57
2023/09/24 12:44:12;;;;;;;5.20;4.60;;;24.10;57.80;;;;;;5014911;28;20045;-58
2023/09/24 12:46:40;;;;;;;6.72;4.57;;;24.10;58.20;;;;;;5015057;28;20026;-57
2023/09/24 12:49:06;;;;;;;7.50;4.75;;;24.10;58.00;;;;;;5014725;28;20030;-58